createdAt,value
2018-06-13T00:03:08.888Z,22.1
2018-06-13T00:13:07.834Z,22.1
2018-06-13T00:23:07.633Z,22.1
2018-06-13T00:33:06.601Z,22.1
2018-06-13T00:43:05.815Z,22.1
2018-06-13T00:53:05.390Z,22.1
2018-06-13T01:03:04.304Z,22
2018-06-13T01:13:03.529Z,22
2018-06-13T01:23:02.577Z,21.9
2018-06-13T01:33:02.143Z,21.9
2018-06-13T01:43:00.956Z,21.9
2018-06-13T01:53:00.502Z,21.9
2018-06-13T02:02:59.731Z,21.8
2018-06-13T02:12:59.037Z,21.8
2018-06-13T02:22:58.174Z,21.6
2018-06-13T02:32:57.408Z,21.6
2018-06-13T02:42:56.702Z,21.6
2018-06-13T02:52:56.180Z,21.4
2018-06-13T03:02:55.220Z,21.6
2018-06-13T03:12:54.466Z,21.9
2018-06-13T03:22:53.644Z,22.1
2018-06-13T03:32:52.851Z,22.4
2018-06-13T03:42:52.453Z,22.6
2018-06-13T03:52:51.331Z,22.8
2018-06-13T04:02:50.330Z,22.9
2018-06-13T04:12:49.783Z,23.1
2018-06-13T04:22:49.122Z,23.3
2018-06-13T04:32:48.069Z,23.4
2018-06-13T04:42:48.074Z,23.7
2018-06-13T04:52:47.021Z,24.1
2018-06-13T05:02:45.978Z,24.3
2018-06-13T05:12:45.556Z,24.6
2018-06-13T05:22:44.450Z,24.8
2018-06-13T05:32:43.767Z,25
2018-06-13T05:42:42.922Z,25.4
2018-06-13T05:52:42.584Z,25.7
2018-06-13T06:02:41.406Z,26.3
2018-06-13T06:12:40.948Z,26.4
2018-06-13T06:22:39.604Z,27.3
2018-06-13T06:32:39.447Z,27.8
2018-06-13T06:42:38.692Z,27.6
2018-06-13T06:52:37.579Z,27.1
2018-06-13T07:02:37.479Z,27.2
2018-06-13T07:12:36.136Z,26.8
2018-06-13T07:22:35.289Z,27.2
2018-06-13T07:32:35.103Z,27.2
2018-06-13T07:42:34.101Z,27.3
2018-06-13T07:52:33.370Z,27.1
2018-06-13T08:02:32.012Z,26.9
2018-06-13T08:12:31.567Z,27.6
2018-06-13T08:22:31.272Z,27.8
2018-06-13T08:32:29.972Z,28.1
2018-06-13T08:42:29.566Z,27.9
2018-06-13T08:52:28.422Z,28
2018-06-13T09:02:27.397Z,28.9
2018-06-13T09:12:27.280Z,28.9
2018-06-13T09:22:26.531Z,27.9
2018-06-13T09:32:25.423Z,27.8
2018-06-13T09:42:24.981Z,27.6
2018-06-13T09:52:23.848Z,27.5
2018-06-13T10:02:23.372Z,27.4
2018-06-13T10:12:22.601Z,27.3
2018-06-13T10:22:21.569Z,27.4
2018-06-13T10:32:21.070Z,27.6
2018-06-13T10:42:20.381Z,27.9
2018-06-13T10:52:19.273Z,28.1
2018-06-13T11:02:18.877Z,28.3
2018-06-13T11:12:17.742Z,28.3
2018-06-13T11:22:17.297Z,28.1
2018-06-13T11:32:16.217Z,27.9
2018-06-13T11:42:15.825Z,27.8
2018-06-13T11:52:14.407Z,27.3
2018-06-13T12:02:13.640Z,27
2018-06-13T12:12:13.369Z,26.7
2018-06-13T12:22:12.116Z,26.3
2018-06-13T12:32:11.642Z,25.8
2018-06-13T12:42:10.896Z,24.8
2018-06-13T12:52:10.126Z,24.4
2018-06-13T13:02:09.725Z,24.4
2018-06-13T13:12:08.977Z,24.6
2018-06-13T13:22:07.817Z,24.8
2018-06-13T13:32:07.335Z,24.5
2018-06-13T13:42:06.307Z,25.3
2018-06-13T13:52:05.590Z,25.2
2018-06-13T14:02:04.507Z,24.9
2018-06-13T14:12:04.295Z,24.7
2018-06-13T14:22:02.993Z,24.6
2018-06-13T14:32:02.598Z,24.8
2018-06-13T14:42:02.012Z,24.9
2018-06-13T14:52:01.329Z,25.2
2018-06-13T15:02:00.256Z,25.4
2018-06-13T15:11:59.436Z,25.5
2018-06-13T15:21:58.750Z,25.7
2018-06-13T15:31:57.668Z,25.8
2018-06-13T15:41:57.157Z,25.8
2018-06-13T15:51:56.666Z,25.8
2018-06-13T16:01:55.832Z,25.8
2018-06-13T16:11:55.169Z,25.8
2018-06-13T16:21:54.101Z,25.8
2018-06-13T16:31:53.392Z,25.8
2018-06-13T16:41:52.582Z,25.4
2018-06-13T16:51:51.816Z,25
2018-06-13T17:01:51.341Z,24.4
2018-06-13T17:11:50.124Z,24.1
2018-06-13T17:21:49.702Z,24
2018-06-13T17:31:48.789Z,20.5
2018-06-13T17:41:47.834Z,19.3
2018-06-13T17:51:47.606Z,19.6
2018-06-13T18:01:46.507Z,20.8
2018-06-13T18:11:46.092Z,21
2018-06-13T18:21:44.707Z,21.9
2018-06-13T18:31:44.679Z,22.2
2018-06-13T18:41:44.048Z,22.1
2018-06-13T18:51:42.710Z,21.9
2018-06-13T19:01:42.259Z,21.9
2018-06-13T19:11:41.194Z,21.9
2018-06-13T19:21:40.440Z,22.4
2018-06-13T19:31:39.683Z,22.5
2018-06-13T19:41:39.020Z,22.4
2018-06-13T19:51:38.261Z,22.4
2018-06-13T20:01:37.125Z,22.4
2018-06-13T20:11:36.522Z,22.3
2018-06-13T20:21:35.966Z,22.3
2018-06-13T20:31:36.142Z,22.3
2018-06-13T20:41:34.457Z,22.3
2018-06-13T20:51:33.718Z,22.3
2018-06-13T21:01:32.864Z,22.3
2018-06-13T21:11:32.139Z,22.2
2018-06-13T21:21:31.457Z,22.2
2018-06-13T21:31:30.567Z,22.2
2018-06-13T21:41:29.757Z,22.1
2018-06-13T21:51:29.004Z,22.1
2018-06-13T22:01:28.373Z,22.1
2018-06-13T22:11:27.464Z,22
2018-06-13T22:21:26.994Z,21.9
2018-06-13T22:31:25.948Z,21.8
2018-06-13T22:41:25.546Z,21.7
2018-06-13T22:51:24.523Z,21.6
2018-06-13T23:01:23.672Z,21.6
2018-06-13T23:11:37.594Z,21.6
2018-06-13T23:21:22.172Z,21.6
2018-06-13T23:31:21.384Z,21.7
2018-06-13T23:41:20.959Z,21.7
2018-06-13T23:51:19.547Z,21.7
